sensor_id;sensor_type;location;lat;lon;timestamp;temperature;humidity
23562;DHT22;11959;49.418;8.728;2022-10-31T00:00:40;12.20;99.90
23562;DHT22;11959;49.418;8.728;2022-10-31T00:03:06;12.20;99.90
23562;DHT22;11959;49.418;8.728;2022-10-31T00:05:32;12.20;99.90
23562;DHT22;11959;49.418;8.728;2022-10-31T00:07:57;12.20;99.90
23562;DHT22;11959;49.418;8.728;2022-10-31T00:10:23;12.10;99.90
23562;DHT22;11959;49.418;8.728;2022-10-31T00:12:48;12.10;99.90
23562;DHT22;11959;49.418;8.728;2022-10-31T00:15:14;12.10;99.90
23562;DHT22;11959;49.418;8.728;2022-10-31T00:17:40;12.10;99.90
23562;DHT22;11959;49.418;8.728;2022-10-31T00:20:06;12.10;99.90
23562;DHT22;11959;49.418;8.728;2022-10-31T00:22:32;12.10;99.90
23562;DHT22;11959;49.418;8.728;2022-10-31T00:24:57;12.10;99.90
23562;DHT22;11959;49.418;8.728;2022-10-31T00:27:23;12.00;99.90
23562;DHT22;11959;49.418;8.728;2022-10-31T00:29:48;12.00;99.90
23562;DHT22;11959;49.418;8.728;2022-10-31T00:32:14;12.10;99.90
23562;DHT22;11959;49.418;8.728;2022-10-31T00:34:40;12.00;99.90
23562;DHT22;11959;49.418;8.728;2022-10-31T00:37:05;12.00;99.90
23562;DHT22;11959;49.418;8.728;2022-10-31T00:39:32;12.00;99.90
23562;DHT22;11959;49.418;8.728;2022-10-31T00:41:58;11.90;99.90
23562;DHT22;11959;49.418;8.728;2022-10-31T00:44:23;12.00;99.90
23562;DHT22;11959;49.418;8.728;2022-10-31T00:46:49;12.00;99.90
23562;DHT22;11959;49.418;8.728;2022-10-31T00:49:15;12.00;99.90
23562;DHT22;11959;49.418;8.728;2022-10-31T00:51:40;12.00;99.90
23562;DHT22;11959;49.418;8.728;2022-10-31T00:54:06;11.90;99.90
23562;DHT22;11959;49.418;8.728;2022-10-31T00:56:32;11.90;99.90
23562;DHT22;11959;49.418;8.728;2022-10-31T00:58:57;11.90;99.90
23562;DHT22;11959;49.418;8.728;2022-10-31T01:01:23;11.90;99.90
23562;DHT22;11959;49.418;8.728;2022-10-31T01:03:48;11.80;99.90
23562;DHT22;11959;49.418;8.728;2022-10-31T01:06:14;11.90;99.90
23562;DHT22;11959;49.418;8.728;2022-10-31T01:08:41;11.90;99.90
23562;DHT22;11959;49.418;8.728;2022-10-31T01:11:15;11.80;99.90
23562;DHT22;11959;49.418;8.728;2022-10-31T01:13:42;11.80;99.90
23562;DHT22;11959;49.418;8.728;2022-10-31T01:16:11;11.80;99.90
23562;DHT22;11959;49.418;8.728;2022-10-31T01:18:37;11.70;99.90
23562;DHT22;11959;49.418;8.728;2022-10-31T01:21:06;11.70;99.90
23562;DHT22;11959;49.418;8.728;2022-10-31T01:23:33;11.70;99.90
23562;DHT22;11959;49.418;8.728;2022-10-31T01:26:22;11.70;99.90
23562;DHT22;11959;49.418;8.728;2022-10-31T01:28:52;11.70;99.90
23562;DHT22;11959;49.418;8.728;2022-10-31T01:31:20;11.70;99.90
23562;DHT22;11959;49.418;8.728;2022-10-31T01:33:46;11.70;99.90
23562;DHT22;11959;49.418;8.728;2022-10-31T01:36:21;11.70;99.90
23562;DHT22;11959;49.418;8.728;2022-10-31T01:38:47;11.70;99.90
23562;DHT22;11959;49.418;8.728;2022-10-31T01:41:19;11.60;99.90
23562;DHT22;11959;49.418;8.728;2022-10-31T01:44:43;11.60;99.90
23562;DHT22;11959;49.418;8.728;2022-10-31T01:46:52;11.70;99.90
23562;DHT22;11959;49.418;8.728;2022-10-31T01:49:40;11.60;99.90
23562;DHT22;11959;49.418;8.728;2022-10-31T01:52:27;11.60;99.90
23562;DHT22;11959;49.418;8.728;2022-10-31T01:57:43;11.60;99.90
23562;DHT22;11959;49.418;8.728;2022-10-31T02:00:11;11.50;99.90
23562;DHT22;11959;49.418;8.728;2022-10-31T02:02:37;11.50;99.90
23562;DHT22;11959;49.418;8.728;2022-10-31T02:05:06;11.50;99.90
23562;DHT22;11959;49.418;8.728;2022-10-31T02:10:25;11.50;99.90
23562;DHT22;11959;49.418;8.728;2022-10-31T02:12:53;11.50;99.90
23562;DHT22;11959;49.418;8.728;2022-10-31T02:15:20;11.50;99.90
23562;DHT22;11959;49.418;8.728;2022-10-31T02:17:46;11.50;99.90
23562;DHT22;11959;49.418;8.728;2022-10-31T02:20:16;11.50;99.90
23562;DHT22;11959;49.418;8.728;2022-10-31T02:23:11;11.40;99.90
23562;DHT22;11959;49.418;8.728;2022-10-31T02:34:00;11.40;99.90
23562;DHT22;11959;49.418;8.728;2022-10-31T02:36:38;11.40;99.90
23562;DHT22;11959;49.418;8.728;2022-10-31T02:42:13;11.40;99.90
23562;DHT22;11959;49.418;8.728;2022-10-31T02:45:29;11.40;99.90
23562;DHT22;11959;49.418;8.728;2022-10-31T02:47:38;11.40;99.90
23562;DHT22;11959;49.418;8.728;2022-10-31T02:50:28;11.40;99.90
23562;DHT22;11959;49.418;8.728;2022-10-31T02:52:55;11.40;99.90
23562;DHT22;11959;49.418;8.728;2022-10-31T02:57:55;11.40;99.90
23562;DHT22;11959;49.418;8.728;2022-10-31T03:00:23;11.40;99.90
23562;DHT22;11959;49.418;8.728;2022-10-31T03:05:53;11.40;99.90
23562;DHT22;11959;49.418;8.728;2022-10-31T03:08:38;11.30;99.90
23562;DHT22;11959;49.418;8.728;2022-10-31T03:11:07;11.40;99.90
23562;DHT22;11959;49.418;8.728;2022-10-31T03:19:34;11.30;99.90
23562;DHT22;11959;49.418;8.728;2022-10-31T03:22:20;11.30;99.90
23562;DHT22;11959;49.418;8.728;2022-10-31T03:24:48;11.30;99.90
23562;DHT22;11959;49.418;8.728;2022-10-31T03:27:21;11.30;99.90
23562;DHT22;11959;49.418;8.728;2022-10-31T03:29:49;11.30;99.90
23562;DHT22;11959;49.418;8.728;2022-10-31T03:32:29;11.20;99.90
23562;DHT22;11959;49.418;8.728;2022-10-31T03:34:59;11.20;99.90
23562;DHT22;11959;49.418;8.728;2022-10-31T03:37:28;11.20;99.90
23562;DHT22;11959;49.418;8.728;2022-10-31T03:39:56;11.30;99.90
23562;DHT22;11959;49.418;8.728;2022-10-31T03:42:24;11.20;99.90
23562;DHT22;11959;49.418;8.728;2022-10-31T03:44:58;11.20;99.90
23562;DHT22;11959;49.418;8.728;2022-10-31T03:47:26;11.20;99.90
23562;DHT22;11959;49.418;8.728;2022-10-31T03:49:52;11.20;99.90
23562;DHT22;11959;49.418;8.728;2022-10-31T03:52:37;11.20;99.90
23562;DHT22;11959;49.418;8.728;2022-10-31T03:58:10;11.20;99.90
23562;DHT22;11959;49.418;8.728;2022-10-31T04:00:40;11.20;99.90
23562;DHT22;11959;49.418;8.728;2022-10-31T04:03:11;11.20;99.90
23562;DHT22;11959;49.418;8.728;2022-10-31T04:05:40;11.30;99.90
23562;DHT22;11959;49.418;8.728;2022-10-31T04:08:10;11.20;99.90
23562;DHT22;11959;49.418;8.728;2022-10-31T04:10:38;11.20;99.90
23562;DHT22;11959;49.418;8.728;2022-10-31T04:13:12;11.20;99.90
23562;DHT22;11959;49.418;8.728;2022-10-31T04:15:38;11.20;99.90
23562;DHT22;11959;49.418;8.728;2022-10-31T04:18:05;11.20;99.90
23562;DHT22;11959;49.418;8.728;2022-10-31T04:20:32;11.10;99.90
23562;DHT22;11959;49.418;8.728;2022-10-31T04:22:59;11.20;99.90
23562;DHT22;11959;49.418;8.728;2022-10-31T04:25:25;11.10;99.90
23562;DHT22;11959;49.418;8.728;2022-10-31T04:27:51;11.10;99.90
23562;DHT22;11959;49.418;8.728;2022-10-31T04:30:17;11.10;99.90
23562;DHT22;11959;49.418;8.728;2022-10-31T04:32:42;11.10;99.90
23562;DHT22;11959;49.418;8.728;2022-10-31T04:35:08;11.00;99.90
23562;DHT22;11959;49.418;8.728;2022-10-31T04:37:33;11.00;99.90
23562;DHT22;11959;49.418;8.728;2022-10-31T04:39:59;11.00;99.90
23562;DHT22;11959;49.418;8.728;2022-10-31T04:42:25;11.00;99.90
23562;DHT22;11959;49.418;8.728;2022-10-31T04:44:50;11.00;99.90
23562;DHT22;11959;49.418;8.728;2022-10-31T04:47:16;11.00;99.90
23562;DHT22;11959;49.418;8.728;2022-10-31T04:49:41;10.90;99.90
23562;DHT22;11959;49.418;8.728;2022-10-31T04:52:07;10.90;99.90
23562;DHT22;11959;49.418;8.728;2022-10-31T04:54:33;11.00;99.90
23562;DHT22;11959;49.418;8.728;2022-10-31T04:56:59;11.00;99.90
23562;DHT22;11959;49.418;8.728;2022-10-31T04:59:24;11.00;99.90
23562;DHT22;11959;49.418;8.728;2022-10-31T05:01:50;11.00;99.90
23562;DHT22;11959;49.418;8.728;2022-10-31T05:04:16;11.00;99.90
23562;DHT22;11959;49.418;8.728;2022-10-31T05:06:41;11.00;99.90
23562;DHT22;11959;49.418;8.728;2022-10-31T05:09:07;10.90;99.90
23562;DHT22;11959;49.418;8.728;2022-10-31T05:11:32;10.90;99.90
23562;DHT22;11959;49.418;8.728;2022-10-31T05:13:58;10.90;99.90
23562;DHT22;11959;49.418;8.728;2022-10-31T05:16:24;10.90;99.90
23562;DHT22;11959;49.418;8.728;2022-10-31T05:18:49;10.90;99.90
23562;DHT22;11959;49.418;8.728;2022-10-31T05:21:15;10.90;99.90
23562;DHT22;11959;49.418;8.728;2022-10-31T05:23:41;10.90;99.90
23562;DHT22;11959;49.418;8.728;2022-10-31T05:26:06;10.80;99.90
23562;DHT22;11959;49.418;8.728;2022-10-31T05:28:32;10.90;99.90
23562;DHT22;11959;49.418;8.728;2022-10-31T05:30:57;10.80;99.90
23562;DHT22;11959;49.418;8.728;2022-10-31T05:33:23;10.80;99.90
23562;DHT22;11959;49.418;8.728;2022-10-31T05:35:49;10.80;99.90
23562;DHT22;11959;49.418;8.728;2022-10-31T05:38:14;10.70;99.90
23562;DHT22;11959;49.418;8.728;2022-10-31T05:40:40;10.70;99.90
23562;DHT22;11959;49.418;8.728;2022-10-31T05:43:05;10.70;99.90
23562;DHT22;11959;49.418;8.728;2022-10-31T05:45:31;10.70;99.90
23562;DHT22;11959;49.418;8.728;2022-10-31T05:47:58;10.70;99.90
23562;DHT22;11959;49.418;8.728;2022-10-31T05:50:26;10.70;99.90
23562;DHT22;11959;49.418;8.728;2022-10-31T05:53:05;10.60;99.90
23562;DHT22;11959;49.418;8.728;2022-10-31T05:55:31;10.60;99.90
23562;DHT22;11959;49.418;8.728;2022-10-31T05:57:57;10.60;99.90
23562;DHT22;11959;49.418;8.728;2022-10-31T06:00:24;10.60;99.90
23562;DHT22;11959;49.418;8.728;2022-10-31T06:02:58;10.60;99.90
23562;DHT22;11959;49.418;8.728;2022-10-31T06:05:24;10.60;99.90
23562;DHT22;11959;49.418;8.728;2022-10-31T06:07:50;10.60;99.90
23562;DHT22;11959;49.418;8.728;2022-10-31T06:10:16;10.50;99.90
23562;DHT22;11959;49.418;8.728;2022-10-31T06:12:41;10.60;99.90
23562;DHT22;11959;49.418;8.728;2022-10-31T06:15:08;10.60;99.90
23562;DHT22;11959;49.418;8.728;2022-10-31T06:17:34;10.50;99.90
23562;DHT22;11959;49.418;8.728;2022-10-31T06:20:01;10.50;99.90
23562;DHT22;11959;49.418;8.728;2022-10-31T06:22:27;10.50;99.90
23562;DHT22;11959;49.418;8.728;2022-10-31T06:24:53;10.50;99.90
23562;DHT22;11959;49.418;8.728;2022-10-31T06:27:18;10.50;99.90
23562;DHT22;11959;49.418;8.728;2022-10-31T06:29:44;10.50;99.90
23562;DHT22;11959;49.418;8.728;2022-10-31T06:32:11;10.50;99.90
23562;DHT22;11959;49.418;8.728;2022-10-31T06:34:38;10.40;99.90
23562;DHT22;11959;49.418;8.728;2022-10-31T06:37:08;10.40;99.90
23562;DHT22;11959;49.418;8.728;2022-10-31T06:39:34;10.50;99.90
23562;DHT22;11959;49.418;8.728;2022-10-31T06:42:00;10.50;99.90
23562;DHT22;11959;49.418;8.728;2022-10-31T06:44:25;10.50;99.90
23562;DHT22;11959;49.418;8.728;2022-10-31T06:46:51;10.50;99.90
23562;DHT22;11959;49.418;8.728;2022-10-31T06:49:17;10.50;99.90
23562;DHT22;11959;49.418;8.728;2022-10-31T06:51:42;10.50;99.90
23562;DHT22;11959;49.418;8.728;2022-10-31T06:54:08;10.60;99.90
23562;DHT22;11959;49.418;8.728;2022-10-31T06:56:34;10.70;99.90
23562;DHT22;11959;49.418;8.728;2022-10-31T06:58:59;10.70;99.90
23562;DHT22;11959;49.418;8.728;2022-10-31T07:01:25;10.60;99.90
23562;DHT22;11959;49.418;8.728;2022-10-31T07:03:51;10.70;99.90
23562;DHT22;11959;49.418;8.728;2022-10-31T07:06:17;10.70;99.90
23562;DHT22;11959;49.418;8.728;2022-10-31T07:08:42;10.70;99.90
23562;DHT22;11959;49.418;8.728;2022-10-31T07:11:08;10.80;99.90
23562;DHT22;11959;49.418;8.728;2022-10-31T07:13:33;10.80;99.90
23562;DHT22;11959;49.418;8.728;2022-10-31T07:16:01;10.80;99.90
23562;DHT22;11959;49.418;8.728;2022-10-31T07:18:27;10.90;99.90
23562;DHT22;11959;49.418;8.728;2022-10-31T07:20:53;10.90;99.90
23562;DHT22;11959;49.418;8.728;2022-10-31T07:23:19;10.90;99.90
23562;DHT22;11959;49.418;8.728;2022-10-31T07:25:45;10.90;99.90
23562;DHT22;11959;49.418;8.728;2022-10-31T07:28:11;10.90;99.90
23562;DHT22;11959;49.418;8.728;2022-10-31T07:30:37;11.00;99.90
23562;DHT22;11959;49.418;8.728;2022-10-31T07:33:06;11.00;99.90
23562;DHT22;11959;49.418;8.728;2022-10-31T07:35:33;11.10;99.90
23562;DHT22;11959;49.418;8.728;2022-10-31T07:38:09;11.10;99.90
23562;DHT22;11959;49.418;8.728;2022-10-31T07:40:37;11.20;99.90
23562;DHT22;11959;49.418;8.728;2022-10-31T07:43:05;11.20;99.90
23562;DHT22;11959;49.418;8.728;2022-10-31T07:45:30;11.30;99.90
23562;DHT22;11959;49.418;8.728;2022-10-31T07:47:56;11.30;99.90
23562;DHT22;11959;49.418;8.728;2022-10-31T07:50:27;11.30;99.90
23562;DHT22;11959;49.418;8.728;2022-10-31T07:53:11;11.40;99.90
23562;DHT22;11959;49.418;8.728;2022-10-31T07:55:37;11.40;99.90
23562;DHT22;11959;49.418;8.728;2022-10-31T07:58:05;11.40;99.90
23562;DHT22;11959;49.418;8.728;2022-10-31T08:00:33;11.40;99.90
23562;DHT22;11959;49.418;8.728;2022-10-31T08:03:11;11.50;99.90
23562;DHT22;11959;49.418;8.728;2022-10-31T08:05:38;11.60;99.90
23562;DHT22;11959;49.418;8.728;2022-10-31T08:08:04;11.60;99.90
23562;DHT22;11959;49.418;8.728;2022-10-31T08:10:30;11.70;99.90
23562;DHT22;11959;49.418;8.728;2022-10-31T08:13:02;11.70;99.90
23562;DHT22;11959;49.418;8.728;2022-10-31T08:15:29;11.70;99.90
23562;DHT22;11959;49.418;8.728;2022-10-31T08:17:54;11.80;99.90
23562;DHT22;11959;49.418;8.728;2022-10-31T08:20:21;11.80;99.90
23562;DHT22;11959;49.418;8.728;2022-10-31T08:22:54;11.90;99.90
23562;DHT22;11959;49.418;8.728;2022-10-31T08:25:20;12.00;99.90
23562;DHT22;11959;49.418;8.728;2022-10-31T08:27:51;12.00;99.90
23562;DHT22;11959;49.418;8.728;2022-10-31T08:30:17;12.10;99.90
23562;DHT22;11959;49.418;8.728;2022-10-31T08:32:43;12.10;99.90
23562;DHT22;11959;49.418;8.728;2022-10-31T08:35:08;12.20;99.90
23562;DHT22;11959;49.418;8.728;2022-10-31T08:37:34;12.20;99.90
23562;DHT22;11959;49.418;8.728;2022-10-31T08:40:00;12.30;99.90
23562;DHT22;11959;49.418;8.728;2022-10-31T08:42:25;12.30;99.90
23562;DHT22;11959;49.418;8.728;2022-10-31T08:44:51;12.40;99.90
23562;DHT22;11959;49.418;8.728;2022-10-31T08:47:16;12.50;99.90
23562;DHT22;11959;49.418;8.728;2022-10-31T08:49:42;12.60;99.90
23562;DHT22;11959;49.418;8.728;2022-10-31T08:52:08;12.60;99.90
23562;DHT22;11959;49.418;8.728;2022-10-31T08:54:33;12.70;99.90
23562;DHT22;11959;49.418;8.728;2022-10-31T08:56:59;12.80;99.90
23562;DHT22;11959;49.418;8.728;2022-10-31T08:59:25;12.80;99.90
23562;DHT22;11959;49.418;8.728;2022-10-31T09:01:50;12.90;99.90
23562;DHT22;11959;49.418;8.728;2022-10-31T09:04:16;12.90;99.90
23562;DHT22;11959;49.418;8.728;2022-10-31T09:06:41;12.90;99.90
23562;DHT22;11959;49.418;8.728;2022-10-31T09:09:07;13.00;99.90
23562;DHT22;11959;49.418;8.728;2022-10-31T09:11:33;13.10;99.90
23562;DHT22;11959;49.418;8.728;2022-10-31T09:13:58;13.20;99.90
23562;DHT22;11959;49.418;8.728;2022-10-31T09:16:24;13.20;99.90
23562;DHT22;11959;49.418;8.728;2022-10-31T09:18:50;13.20;99.90
23562;DHT22;11959;49.418;8.728;2022-10-31T09:21:16;13.30;99.90
23562;DHT22;11959;49.418;8.728;2022-10-31T09:23:41;13.30;99.90
23562;DHT22;11959;49.418;8.728;2022-10-31T09:26:07;13.40;99.90
23562;DHT22;11959;49.418;8.728;2022-10-31T09:28:33;13.40;99.90
23562;DHT22;11959;49.418;8.728;2022-10-31T09:30:58;13.40;99.90
23562;DHT22;11959;49.418;8.728;2022-10-31T09:33:24;13.50;99.90
23562;DHT22;11959;49.418;8.728;2022-10-31T09:35:50;13.60;99.90
23562;DHT22;11959;49.418;8.728;2022-10-31T09:38:18;13.60;99.90
23562;DHT22;11959;49.418;8.728;2022-10-31T09:44:11;13.70;99.90
23562;DHT22;11959;49.418;8.728;2022-10-31T09:52:34;13.80;99.90
23562;DHT22;11959;49.418;8.728;2022-10-31T09:55:21;13.90;99.90
23562;DHT22;11959;49.418;8.728;2022-10-31T09:57:49;13.90;99.90
23562;DHT22;11959;49.418;8.728;2022-10-31T10:00:18;14.00;99.90
23562;DHT22;11959;49.418;8.728;2022-10-31T10:02:53;14.00;99.90
23562;DHT22;11959;49.418;8.728;2022-10-31T10:05:28;14.10;99.90
23562;DHT22;11959;49.418;8.728;2022-10-31T10:08:11;14.20;99.90
23562;DHT22;11959;49.418;8.728;2022-10-31T10:16:13;14.40;99.90
23562;DHT22;11959;49.418;8.728;2022-10-31T10:21:43;14.50;99.90
23562;DHT22;11959;49.418;8.728;2022-10-31T10:24:29;14.60;99.90
23562;DHT22;11959;49.418;8.728;2022-10-31T10:30:37;14.70;99.90
23562;DHT22;11959;49.418;8.728;2022-10-31T10:32:58;14.80;99.90
23562;DHT22;11959;49.418;8.728;2022-10-31T10:35:28;14.80;99.90
23562;DHT22;11959;49.418;8.728;2022-10-31T10:40:49;14.80;99.90
23562;DHT22;11959;49.418;8.728;2022-10-31T10:51:43;14.90;99.90
23562;DHT22;11959;49.418;8.728;2022-10-31T10:59:40;14.90;99.90
23562;DHT22;11959;49.418;8.728;2022-10-31T11:02:21;15.00;99.90
23562;DHT22;11959;49.418;8.728;2022-10-31T11:04:54;15.20;99.90
23562;DHT22;11959;49.418;8.728;2022-10-31T11:07:20;15.30;99.90
23562;DHT22;11959;49.418;8.728;2022-10-31T11:09:46;15.40;99.90
23562;DHT22;11959;49.418;8.728;2022-10-31T11:12:30;15.50;99.90
23562;DHT22;11959;49.418;8.728;2022-10-31T11:14:59;15.50;99.90
23562;DHT22;11959;49.418;8.728;2022-10-31T11:17:30;15.70;99.90
23562;DHT22;11959;49.418;8.728;2022-10-31T11:20:06;15.70;99.90
23562;DHT22;11959;49.418;8.728;2022-10-31T11:22:47;15.80;99.90
23562;DHT22;11959;49.418;8.728;2022-10-31T11:25:32;15.90;99.90
23562;DHT22;11959;49.418;8.728;2022-10-31T11:30:30;15.90;99.90
23562;DHT22;11959;49.418;8.728;2022-10-31T11:32:56;16.00;99.90
23562;DHT22;11959;49.418;8.728;2022-10-31T11:35:24;16.10;99.90
23562;DHT22;11959;49.418;8.728;2022-10-31T11:37:51;16.10;99.90
23562;DHT22;11959;49.418;8.728;2022-10-31T11:40:28;16.20;99.90
23562;DHT22;11959;49.418;8.728;2022-10-31T11:42:56;16.30;99.90
23562;DHT22;11959;49.418;8.728;2022-10-31T11:47:51;16.30;99.90
23562;DHT22;11959;49.418;8.728;2022-10-31T11:50:47;16.40;99.90
23562;DHT22;11959;49.418;8.728;2022-10-31T11:53:19;16.40;99.90
23562;DHT22;11959;49.418;8.728;2022-10-31T11:55:46;16.40;99.90
23562;DHT22;11959;49.418;8.728;2022-10-31T11:58:23;16.50;99.90
23562;DHT22;11959;49.418;8.728;2022-10-31T12:00:51;16.50;99.90
23562;DHT22;11959;49.418;8.728;2022-10-31T12:06:01;16.60;99.90
23562;DHT22;11959;49.418;8.728;2022-10-31T12:08:31;16.60;99.90
23562;DHT22;11959;49.418;8.728;2022-10-31T12:11:31;16.70;99.90
23562;DHT22;11959;49.418;8.728;2022-10-31T12:14:28;16.70;99.90
23562;DHT22;11959;49.418;8.728;2022-10-31T12:17:21;16.80;99.90
23562;DHT22;11959;49.418;8.728;2022-10-31T12:25:52;17.00;99.90
23562;DHT22;11959;49.418;8.728;2022-10-31T12:28:44;17.10;99.90
23562;DHT22;11959;49.418;8.728;2022-10-31T12:31:36;17.10;99.90
23562;DHT22;11959;49.418;8.728;2022-10-31T12:34:36;17.10;99.90
23562;DHT22;11959;49.418;8.728;2022-10-31T12:39:48;17.00;99.90
23562;DHT22;11959;49.418;8.728;2022-10-31T12:42:42;17.00;99.90
23562;DHT22;11959;49.418;8.728;2022-10-31T12:45:28;17.00;99.90
23562;DHT22;11959;49.418;8.728;2022-10-31T12:53:36;16.90;99.90
23562;DHT22;11959;49.418;8.728;2022-10-31T13:01:45;16.90;99.90
23562;DHT22;11959;49.418;8.728;2022-10-31T13:04:18;16.90;99.90
23562;DHT22;11959;49.418;8.728;2022-10-31T13:06:58;16.90;99.90
23562;DHT22;11959;49.418;8.728;2022-10-31T13:09:36;16.90;99.90
23562;DHT22;11959;49.418;8.728;2022-10-31T13:12:13;16.90;99.90
23562;DHT22;11959;49.418;8.728;2022-10-31T13:14:43;16.90;99.90
23562;DHT22;11959;49.418;8.728;2022-10-31T13:17:38;16.90;99.90
23562;DHT22;11959;49.418;8.728;2022-10-31T13:22:42;17.00;99.90
23562;DHT22;11959;49.418;8.728;2022-10-31T13:30:21;17.10;99.90
23562;DHT22;11959;49.418;8.728;2022-10-31T13:35:40;17.30;99.90
23562;DHT22;11959;49.418;8.728;2022-10-31T13:41:00;17.30;99.90
23562;DHT22;11959;49.418;8.728;2022-10-31T13:45:54;17.20;99.90
23562;DHT22;11959;49.418;8.728;2022-10-31T13:48:38;17.20;99.90
23562;DHT22;11959;49.418;8.728;2022-10-31T13:51:09;17.20;99.90
23562;DHT22;11959;49.418;8.728;2022-10-31T13:53:39;17.20;99.90
23562;DHT22;11959;49.418;8.728;2022-10-31T13:58:54;17.10;99.90
23562;DHT22;11959;49.418;8.728;2022-10-31T14:01:21;17.20;99.90
23562;DHT22;11959;49.418;8.728;2022-10-31T14:06:43;17.30;99.90
23562;DHT22;11959;49.418;8.728;2022-10-31T14:09:29;17.40;99.90
23562;DHT22;11959;49.418;8.728;2022-10-31T14:11:57;17.50;99.90
23562;DHT22;11959;49.418;8.728;2022-10-31T14:14:30;17.50;99.90
23562;DHT22;11959;49.418;8.728;2022-10-31T14:16:58;17.50;99.90
23562;DHT22;11959;49.418;8.728;2022-10-31T14:19:25;17.50;99.90
23562;DHT22;11959;49.418;8.728;2022-10-31T14:21:52;17.40;99.90
23562;DHT22;11959;49.418;8.728;2022-10-31T14:26:55;17.30;99.90
23562;DHT22;11959;49.418;8.728;2022-10-31T14:34:56;17.20;99.90
23562;DHT22;11959;49.418;8.728;2022-10-31T14:37:40;17.10;99.90
23562;DHT22;11959;49.418;8.728;2022-10-31T14:51:21;16.70;99.90
23562;DHT22;11959;49.418;8.728;2022-10-31T14:53:56;16.70;99.90
23562;DHT22;11959;49.418;8.728;2022-10-31T14:56:26;16.60;99.90
23562;DHT22;11959;49.418;8.728;2022-10-31T14:58:55;16.50;99.90
23562;DHT22;11959;49.418;8.728;2022-10-31T15:01:28;16.50;99.90
23562;DHT22;11959;49.418;8.728;2022-10-31T15:04:03;16.40;99.90
23562;DHT22;11959;49.418;8.728;2022-10-31T15:06:40;16.30;99.90
23562;DHT22;11959;49.418;8.728;2022-10-31T15:09:20;16.20;99.90
23562;DHT22;11959;49.418;8.728;2022-10-31T15:11:46;16.20;99.90
23562;DHT22;11959;49.418;8.728;2022-10-31T15:14:24;16.10;99.90
23562;DHT22;11959;49.418;8.728;2022-10-31T15:16:50;16.10;99.90
23562;DHT22;11959;49.418;8.728;2022-10-31T15:19:23;16.00;99.90
23562;DHT22;11959;49.418;8.728;2022-10-31T15:21:53;15.90;99.90
23562;DHT22;11959;49.418;8.728;2022-10-31T15:24:20;15.90;99.90
23562;DHT22;11959;49.418;8.728;2022-10-31T15:26:48;15.90;99.90
23562;DHT22;11959;49.418;8.728;2022-10-31T15:29:18;15.80;99.90
23562;DHT22;11959;49.418;8.728;2022-10-31T15:36:55;15.80;99.90
23562;DHT22;11959;49.418;8.728;2022-10-31T15:39:21;15.80;99.90
23562;DHT22;11959;49.418;8.728;2022-10-31T15:41:52;15.80;99.90
23562;DHT22;11959;49.418;8.728;2022-10-31T15:44:26;15.80;99.90
23562;DHT22;11959;49.418;8.728;2022-10-31T15:49:40;15.80;99.90
23562;DHT22;11959;49.418;8.728;2022-10-31T15:52:12;15.90;99.90
23562;DHT22;11959;49.418;8.728;2022-10-31T15:54:51;16.00;99.90
23562;DHT22;11959;49.418;8.728;2022-10-31T15:57:18;16.00;99.90
23562;DHT22;11959;49.418;8.728;2022-10-31T15:59:46;16.00;99.90
23562;DHT22;11959;49.418;8.728;2022-10-31T16:02:14;16.10;99.90
23562;DHT22;11959;49.418;8.728;2022-10-31T16:05:00;16.00;99.90
23562;DHT22;11959;49.418;8.728;2022-10-31T16:07:27;16.00;99.90
23562;DHT22;11959;49.418;8.728;2022-10-31T16:09:57;16.00;99.90
23562;DHT22;11959;49.418;8.728;2022-10-31T16:12:24;16.00;99.90
23562;DHT22;11959;49.418;8.728;2022-10-31T16:14:53;15.90;99.90
23562;DHT22;11959;49.418;8.728;2022-10-31T16:17:21;15.90;99.90
23562;DHT22;11959;49.418;8.728;2022-10-31T16:19:57;16.00;99.90
23562;DHT22;11959;49.418;8.728;2022-10-31T16:22:29;16.00;99.90
23562;DHT22;11959;49.418;8.728;2022-10-31T16:27:33;16.00;99.90
23562;DHT22;11959;49.418;8.728;2022-10-31T16:30:00;16.00;99.90
23562;DHT22;11959;49.418;8.728;2022-10-31T16:32:51;15.90;99.90
23562;DHT22;11959;49.418;8.728;2022-10-31T16:35:26;15.90;99.90
23562;DHT22;11959;49.418;8.728;2022-10-31T16:37:52;15.90;99.90
23562;DHT22;11959;49.418;8.728;2022-10-31T16:40:18;16.00;99.90
23562;DHT22;11959;49.418;8.728;2022-10-31T16:42:45;15.90;99.90
23562;DHT22;11959;49.418;8.728;2022-10-31T16:45:19;16.00;99.90
23562;DHT22;11959;49.418;8.728;2022-10-31T16:47:46;15.90;99.90
23562;DHT22;11959;49.418;8.728;2022-10-31T16:50:18;15.80;99.90
23562;DHT22;11959;49.418;8.728;2022-10-31T16:52:44;15.80;99.90
23562;DHT22;11959;49.418;8.728;2022-10-31T16:55:14;15.70;99.90
23562;DHT22;11959;49.418;8.728;2022-10-31T16:57:45;15.70;99.90
23562;DHT22;11959;49.418;8.728;2022-10-31T17:00:20;15.60;99.90
23562;DHT22;11959;49.418;8.728;2022-10-31T17:02:47;15.50;99.90
23562;DHT22;11959;49.418;8.728;2022-10-31T17:05:16;15.40;99.90
23562;DHT22;11959;49.418;8.728;2022-10-31T17:07:42;15.40;99.90
23562;DHT22;11959;49.418;8.728;2022-10-31T17:10:09;15.30;99.90
23562;DHT22;11959;49.418;8.728;2022-10-31T17:12:36;15.30;99.90
23562;DHT22;11959;49.418;8.728;2022-10-31T17:15:02;15.40;99.90
23562;DHT22;11959;49.418;8.728;2022-10-31T17:17:28;15.40;99.90
23562;DHT22;11959;49.418;8.728;2022-10-31T17:19:54;15.40;99.90
23562;DHT22;11959;49.418;8.728;2022-10-31T17:22:19;15.40;99.90
23562;DHT22;11959;49.418;8.728;2022-10-31T17:24:45;15.50;99.90
23562;DHT22;11959;49.418;8.728;2022-10-31T17:27:10;15.50;99.90
23562;DHT22;11959;49.418;8.728;2022-10-31T17:29:36;15.50;99.90
23562;DHT22;11959;49.418;8.728;2022-10-31T17:32:02;15.50;99.90
23562;DHT22;11959;49.418;8.728;2022-10-31T17:34:28;15.50;99.90
23562;DHT22;11959;49.418;8.728;2022-10-31T17:36:54;15.50;99.90
23562;DHT22;11959;49.418;8.728;2022-10-31T17:39:20;15.50;99.90
23562;DHT22;11959;49.418;8.728;2022-10-31T17:41:49;15.50;99.90
23562;DHT22;11959;49.418;8.728;2022-10-31T17:44:16;15.50;99.90
23562;DHT22;11959;49.418;8.728;2022-10-31T17:46:42;15.50;99.90
23562;DHT22;11959;49.418;8.728;2022-10-31T17:49:10;15.50;99.90
23562;DHT22;11959;49.418;8.728;2022-10-31T17:51:36;15.50;99.90
23562;DHT22;11959;49.418;8.728;2022-10-31T17:54:02;15.50;99.90
23562;DHT22;11959;49.418;8.728;2022-10-31T17:56:30;15.50;99.90
23562;DHT22;11959;49.418;8.728;2022-10-31T17:58:55;15.50;99.90
23562;DHT22;11959;49.418;8.728;2022-10-31T18:01:22;15.50;99.90
23562;DHT22;11959;49.418;8.728;2022-10-31T18:03:48;15.50;99.90
23562;DHT22;11959;49.418;8.728;2022-10-31T18:06:14;15.50;99.90
23562;DHT22;11959;49.418;8.728;2022-10-31T18:08:41;15.50;99.90
23562;DHT22;11959;49.418;8.728;2022-10-31T18:11:16;15.40;99.90
23562;DHT22;11959;49.418;8.728;2022-10-31T18:13:43;15.40;99.90